sensor_id;sensor_type;location;lat;lon;timestamp;temperature;humidity
28725;DHT22;43472;48.980;9.646;2023-11-19T00:01:19;9.40;99.90
28725;DHT22;43472;48.980;9.646;2023-11-19T00:06:21;9.70;99.90
28725;DHT22;43472;48.980;9.646;2023-11-19T00:11:23;12.20;99.90
28725;DHT22;43472;48.980;9.646;2023-11-19T00:16:24;11.60;99.90
28725;DHT22;43472;48.980;9.646;2023-11-19T00:21:27;9.30;99.90
28725;DHT22;43472;48.980;9.646;2023-11-19T00:26:30;9.80;99.90
28725;DHT22;43472;48.980;9.646;2023-11-19T00:31:32;9.70;99.90
28725;DHT22;43472;48.980;9.646;2023-11-19T00:36:33;12.00;99.90
28725;DHT22;43472;48.980;9.646;2023-11-19T00:41:35;9.90;99.90
28725;DHT22;43472;48.980;9.646;2023-11-19T00:46:37;10.20;99.90
28725;DHT22;43472;48.980;9.646;2023-11-19T00:51:39;10.00;99.90
28725;DHT22;43472;48.980;9.646;2023-11-19T00:56:41;11.20;99.90
28725;DHT22;43472;48.980;9.646;2023-11-19T01:01:42;10.00;99.90
28725;DHT22;43472;48.980;9.646;2023-11-19T01:06:45;10.20;99.90
28725;DHT22;43472;48.980;9.646;2023-11-19T01:11:50;10.00;99.90
28725;DHT22;43472;48.980;9.646;2023-11-19T01:16:52;10.10;99.90
28725;DHT22;43472;48.980;9.646;2023-11-19T01:26:58;10.20;99.90
28725;DHT22;43472;48.980;9.646;2023-11-19T01:32:01;10.30;99.90
28725;DHT22;43472;48.980;9.646;2023-11-19T01:37:03;11.10;99.90
28725;DHT22;43472;48.980;9.646;2023-11-19T01:42:06;10.40;99.90
28725;DHT22;43472;48.980;9.646;2023-11-19T01:52:11;10.50;99.90
28725;DHT22;43472;48.980;9.646;2023-11-19T01:57:13;10.60;99.90
28725;DHT22;43472;48.980;9.646;2023-11-19T02:02:15;10.70;99.90
28725;DHT22;43472;48.980;9.646;2023-11-19T02:07:18;10.70;99.90
28725;DHT22;43472;48.980;9.646;2023-11-19T02:17:31;10.90;99.90
28725;DHT22;43472;48.980;9.646;2023-11-19T02:22:33;10.80;99.90
28725;DHT22;43472;48.980;9.646;2023-11-19T02:27:53;10.80;99.90
28725;DHT22;43472;48.980;9.646;2023-11-19T02:32:59;10.80;99.90
28725;DHT22;43472;48.980;9.646;2023-11-19T02:38:05;10.90;99.90
28725;DHT22;43472;48.980;9.646;2023-11-19T02:43:08;11.70;99.90
28725;DHT22;43472;48.980;9.646;2023-11-19T02:48:10;10.90;99.90
28725;DHT22;43472;48.980;9.646;2023-11-19T02:53:12;11.00;99.90
28725;DHT22;43472;48.980;9.646;2023-11-19T02:58:14;13.60;99.90
28725;DHT22;43472;48.980;9.646;2023-11-19T03:03:25;11.10;99.90
28725;DHT22;43472;48.980;9.646;2023-11-19T03:08:40;12.40;99.90
28725;DHT22;43472;48.980;9.646;2023-11-19T03:13:41;10.90;99.90
28725;DHT22;43472;48.980;9.646;2023-11-19T03:18:43;12.10;99.90
28725;DHT22;43472;48.980;9.646;2023-11-19T03:23:45;10.80;99.90
28725;DHT22;43472;48.980;9.646;2023-11-19T03:28:47;10.60;99.90
28725;DHT22;43472;48.980;9.646;2023-11-19T03:33:49;10.70;99.90
28725;DHT22;43472;48.980;9.646;2023-11-19T03:38:51;10.90;99.90
28725;DHT22;43472;48.980;9.646;2023-11-19T03:43:53;12.30;99.90
28725;DHT22;43472;48.980;9.646;2023-11-19T03:48:55;10.60;99.90
28725;DHT22;43472;48.980;9.646;2023-11-19T03:53:57;10.70;99.90
28725;DHT22;43472;48.980;9.646;2023-11-19T03:58:59;10.70;99.90
28725;DHT22;43472;48.980;9.646;2023-11-19T04:04:00;10.80;99.90
28725;DHT22;43472;48.980;9.646;2023-11-19T04:09:03;10.90;99.90
28725;DHT22;43472;48.980;9.646;2023-11-19T04:19:07;11.00;99.90
28725;DHT22;43472;48.980;9.646;2023-11-19T04:24:09;12.40;99.90
28725;DHT22;43472;48.980;9.646;2023-11-19T04:29:16;11.20;99.90
28725;DHT22;43472;48.980;9.646;2023-11-19T04:34:21;11.10;99.90
28725;DHT22;43472;48.980;9.646;2023-11-19T04:39:22;12.20;99.90
28725;DHT22;43472;48.980;9.646;2023-11-19T04:49:26;11.30;99.90
28725;DHT22;43472;48.980;9.646;2023-11-19T04:54:29;11.40;99.90
28725;DHT22;43472;48.980;9.646;2023-11-19T04:59:31;12.70;99.90
28725;DHT22;43472;48.980;9.646;2023-11-19T05:04:32;11.40;99.90
28725;DHT22;43472;48.980;9.646;2023-11-19T05:09:34;11.40;99.90
28725;DHT22;43472;48.980;9.646;2023-11-19T05:14:36;11.50;99.90
28725;DHT22;43472;48.980;9.646;2023-11-19T05:19:39;11.40;99.90
28725;DHT22;43472;48.980;9.646;2023-11-19T05:24:41;11.50;99.90
28725;DHT22;43472;48.980;9.646;2023-11-19T05:29:42;11.50;99.90
28725;DHT22;43472;48.980;9.646;2023-11-19T05:34:45;11.70;99.90
28725;DHT22;43472;48.980;9.646;2023-11-19T05:39:49;11.60;99.90
28725;DHT22;43472;48.980;9.646;2023-11-19T05:44:51;11.60;99.90
28725;DHT22;43472;48.980;9.646;2023-11-19T05:49:53;11.70;99.90
28725;DHT22;43472;48.980;9.646;2023-11-19T05:54:55;12.90;99.90
28725;DHT22;43472;48.980;9.646;2023-11-19T05:59:57;11.80;99.90
28725;DHT22;43472;48.980;9.646;2023-11-19T06:05:01;11.80;99.90
28725;DHT22;43472;48.980;9.646;2023-11-19T06:10:03;12.70;99.90
28725;DHT22;43472;48.980;9.646;2023-11-19T06:15:09;11.80;99.90
28725;DHT22;43472;48.980;9.646;2023-11-19T06:20:11;11.80;99.90
28725;DHT22;43472;48.980;9.646;2023-11-19T06:25:13;11.80;99.90
28725;DHT22;43472;48.980;9.646;2023-11-19T06:30:16;11.80;99.90
28725;DHT22;43472;48.980;9.646;2023-11-19T06:35:18;11.90;99.90
28725;DHT22;43472;48.980;9.646;2023-11-19T06:40:20;11.90;99.90
28725;DHT22;43472;48.980;9.646;2023-11-19T06:45:22;11.90;99.90
28725;DHT22;43472;48.980;9.646;2023-11-19T06:50:24;12.10;99.90
28725;DHT22;43472;48.980;9.646;2023-11-19T06:55:26;12.10;99.90
28725;DHT22;43472;48.980;9.646;2023-11-19T07:00:29;12.00;99.90
28725;DHT22;43472;48.980;9.646;2023-11-19T07:05:31;12.00;99.90
28725;DHT22;43472;48.980;9.646;2023-11-19T07:10:33;12.00;99.90
28725;DHT22;43472;48.980;9.646;2023-11-19T07:15:35;11.90;99.90
28725;DHT22;43472;48.980;9.646;2023-11-19T07:20:37;12.00;99.90
28725;DHT22;43472;48.980;9.646;2023-11-19T07:25:39;12.20;99.90
28725;DHT22;43472;48.980;9.646;2023-11-19T07:30:41;12.20;99.90
28725;DHT22;43472;48.980;9.646;2023-11-19T07:35:43;12.20;99.90
28725;DHT22;43472;48.980;9.646;2023-11-19T07:40:45;12.30;99.90
28725;DHT22;43472;48.980;9.646;2023-11-19T07:45:50;12.30;99.90
28725;DHT22;43472;48.980;9.646;2023-11-19T07:50:52;12.30;99.90
28725;DHT22;43472;48.980;9.646;2023-11-19T07:55:54;12.30;99.90
28725;DHT22;43472;48.980;9.646;2023-11-19T08:00:56;12.40;99.90
28725;DHT22;43472;48.980;9.646;2023-11-19T08:05:58;12.50;99.90
28725;DHT22;43472;48.980;9.646;2023-11-19T08:11:00;12.50;99.90
28725;DHT22;43472;48.980;9.646;2023-11-19T08:16:02;12.50;99.90
28725;DHT22;43472;48.980;9.646;2023-11-19T08:21:04;12.70;99.90
28725;DHT22;43472;48.980;9.646;2023-11-19T08:26:06;12.70;99.90
28725;DHT22;43472;48.980;9.646;2023-11-19T08:31:08;12.40;99.90
28725;DHT22;43472;48.980;9.646;2023-11-19T08:36:15;12.40;99.90
28725;DHT22;43472;48.980;9.646;2023-11-19T08:41:17;12.50;99.90
28725;DHT22;43472;48.980;9.646;2023-11-19T08:46:20;12.40;99.90
28725;DHT22;43472;48.980;9.646;2023-11-19T08:51:23;12.60;99.90
28725;DHT22;43472;48.980;9.646;2023-11-19T08:56:26;10.40;99.90
28725;DHT22;43472;48.980;9.646;2023-11-19T09:01:33;12.70;99.90
28725;DHT22;43472;48.980;9.646;2023-11-19T09:06:36;12.60;99.90
28725;DHT22;43472;48.980;9.646;2023-11-19T09:11:38;14.00;99.90
28725;DHT22;43472;48.980;9.646;2023-11-19T09:16:39;12.70;99.90
28725;DHT22;43472;48.980;9.646;2023-11-19T09:21:41;12.70;99.90
28725;DHT22;43472;48.980;9.646;2023-11-19T09:26:43;14.20;99.90
28725;DHT22;43472;48.980;9.646;2023-11-19T09:31:45;13.00;99.90
28725;DHT22;43472;48.980;9.646;2023-11-19T09:36:46;13.10;99.90
28725;DHT22;43472;48.980;9.646;2023-11-19T09:41:48;13.10;99.90
28725;DHT22;43472;48.980;9.646;2023-11-19T09:46:52;12.90;99.90
28725;DHT22;43472;48.980;9.646;2023-11-19T09:51:54;14.50;99.90
28725;DHT22;43472;48.980;9.646;2023-11-19T09:56:57;13.00;99.90
28725;DHT22;43472;48.980;9.646;2023-11-19T10:02:06;13.00;99.90
28725;DHT22;43472;48.980;9.646;2023-11-19T10:07:12;13.20;99.90
28725;DHT22;43472;48.980;9.646;2023-11-19T10:12:14;13.10;99.90
28725;DHT22;43472;48.980;9.646;2023-11-19T10:17:16;13.20;99.90
28725;DHT22;43472;48.980;9.646;2023-11-19T10:22:17;13.10;99.90
28725;DHT22;43472;48.980;9.646;2023-11-19T10:27:20;13.30;99.90
28725;DHT22;43472;48.980;9.646;2023-11-19T10:32:22;13.30;99.90
28725;DHT22;43472;48.980;9.646;2023-11-19T10:37:28;13.50;99.90
28725;DHT22;43472;48.980;9.646;2023-11-19T10:42:33;13.50;99.90
28725;DHT22;43472;48.980;9.646;2023-11-19T10:47:35;13.50;99.90
28725;DHT22;43472;48.980;9.646;2023-11-19T10:52:39;14.30;99.90
28725;DHT22;43472;48.980;9.646;2023-11-19T10:57:43;14.00;99.90
28725;DHT22;43472;48.980;9.646;2023-11-19T11:02:51;14.50;99.90
28725;DHT22;43472;48.980;9.646;2023-11-19T11:07:56;15.90;99.90
28725;DHT22;43472;48.980;9.646;2023-11-19T11:12:59;17.90;99.90
28725;DHT22;43472;48.980;9.646;2023-11-19T11:18:02;15.40;99.90
28725;DHT22;43472;48.980;9.646;2023-11-19T11:28:35;17.50;99.90
28725;DHT22;43472;48.980;9.646;2023-11-19T11:39:06;19.50;99.90
28725;DHT22;43472;48.980;9.646;2023-11-19T11:44:09;19.80;99.90
28725;DHT22;43472;48.980;9.646;2023-11-19T11:49:12;20.30;99.90
28725;DHT22;43472;48.980;9.646;2023-11-19T11:59:23;19.40;99.90
28725;DHT22;43472;48.980;9.646;2023-11-19T12:04:28;20.20;99.90
28725;DHT22;43472;48.980;9.646;2023-11-19T12:09:31;20.40;99.90
28725;DHT22;43472;48.980;9.646;2023-11-19T12:15:02;20.60;99.90
28725;DHT22;43472;48.980;9.646;2023-11-19T12:20:07;19.90;99.90
28725;DHT22;43472;48.980;9.646;2023-11-19T12:25:13;23.10;99.90
28725;DHT22;43472;48.980;9.646;2023-11-19T12:30:25;20.50;99.90
28725;DHT22;43472;48.980;9.646;2023-11-19T12:35:28;17.00;99.90
28725;DHT22;43472;48.980;9.646;2023-11-19T12:40:30;16.10;99.90
28725;DHT22;43472;48.980;9.646;2023-11-19T12:45:36;16.00;99.90
28725;DHT22;43472;48.980;9.646;2023-11-19T12:50:51;18.20;99.90
28725;DHT22;43472;48.980;9.646;2023-11-19T12:55:55;17.60;99.90
28725;DHT22;43472;48.980;9.646;2023-11-19T13:01:05;17.10;99.90
28725;DHT22;43472;48.980;9.646;2023-11-19T13:06:12;17.30;99.90
28725;DHT22;43472;48.980;9.646;2023-11-19T13:11:14;16.80;99.90
28725;DHT22;43472;48.980;9.646;2023-11-19T13:16:16;16.90;99.90
28725;DHT22;43472;48.980;9.646;2023-11-19T13:21:21;15.50;99.90
28725;DHT22;43472;48.980;9.646;2023-11-19T13:26:23;15.30;99.90
28725;DHT22;43472;48.980;9.646;2023-11-19T13:31:26;15.10;99.90
28725;DHT22;43472;48.980;9.646;2023-11-19T13:36:28;14.90;99.90
28725;DHT22;43472;48.980;9.646;2023-11-19T13:41:30;16.00;99.90
28725;DHT22;43472;48.980;9.646;2023-11-19T13:46:32;14.60;99.90
28725;DHT22;43472;48.980;9.646;2023-11-19T13:51:34;14.70;99.90
28725;DHT22;43472;48.980;9.646;2023-11-19T13:56:36;14.80;99.90
28725;DHT22;43472;48.980;9.646;2023-11-19T14:01:37;17.30;99.90
28725;DHT22;43472;48.980;9.646;2023-11-19T14:06:39;15.20;99.90
28725;DHT22;43472;48.980;9.646;2023-11-19T14:11:41;19.90;99.90
28725;DHT22;43472;48.980;9.646;2023-11-19T14:16:43;19.50;99.90
28725;DHT22;43472;48.980;9.646;2023-11-19T14:21:46;17.00;99.90
28725;DHT22;43472;48.980;9.646;2023-11-19T14:26:49;17.50;99.90
28725;DHT22;43472;48.980;9.646;2023-11-19T14:31:52;17.20;99.90
28725;DHT22;43472;48.980;9.646;2023-11-19T14:36:58;20.50;99.90
28725;DHT22;43472;48.980;9.646;2023-11-19T14:42:00;23.70;99.90
28725;DHT22;43472;48.980;9.646;2023-11-19T14:47:06;24.40;99.90
28725;DHT22;43472;48.980;9.646;2023-11-19T14:52:07;21.50;99.90
28725;DHT22;43472;48.980;9.646;2023-11-19T14:57:12;18.40;99.90
28725;DHT22;43472;48.980;9.646;2023-11-19T15:02:15;17.20;99.90
28725;DHT22;43472;48.980;9.646;2023-11-19T15:07:17;15.70;99.90
28725;DHT22;43472;48.980;9.646;2023-11-19T15:12:19;15.60;99.90
28725;DHT22;43472;48.980;9.646;2023-11-19T15:17:24;14.80;99.90
28725;DHT22;43472;48.980;9.646;2023-11-19T15:22:28;14.70;99.90
28725;DHT22;43472;48.980;9.646;2023-11-19T15:27:29;14.20;99.90
28725;DHT22;43472;48.980;9.646;2023-11-19T15:32:31;14.20;99.90
28725;DHT22;43472;48.980;9.646;2023-11-19T15:37:33;13.90;99.90
28725;DHT22;43472;48.980;9.646;2023-11-19T15:42:35;13.90;99.90
28725;DHT22;43472;48.980;9.646;2023-11-19T15:47:38;13.60;99.90
28725;DHT22;43472;48.980;9.646;2023-11-19T15:52:42;13.50;99.90
28725;DHT22;43472;48.980;9.646;2023-11-19T15:57:45;13.40;99.90
28725;DHT22;43472;48.980;9.646;2023-11-19T16:02:48;13.20;99.90
28725;DHT22;43472;48.980;9.646;2023-11-19T16:07:52;13.10;99.90
28725;DHT22;43472;48.980;9.646;2023-11-19T16:12:53;13.70;99.90
28725;DHT22;43472;48.980;9.646;2023-11-19T16:17:55;13.10;99.90
28725;DHT22;43472;48.980;9.646;2023-11-19T16:22:59;13.00;99.90
28725;DHT22;43472;48.980;9.646;2023-11-19T16:28:02;12.90;99.90
28725;DHT22;43472;48.980;9.646;2023-11-19T16:33:04;13.00;99.90
28725;DHT22;43472;48.980;9.646;2023-11-19T16:38:13;13.00;99.90
28725;DHT22;43472;48.980;9.646;2023-11-19T16:43:14;13.00;99.90
28725;DHT22;43472;48.980;9.646;2023-11-19T16:48:16;12.90;99.90
28725;DHT22;43472;48.980;9.646;2023-11-19T16:53:18;12.90;99.90
28725;DHT22;43472;48.980;9.646;2023-11-19T16:58:20;13.10;99.90
28725;DHT22;43472;48.980;9.646;2023-11-19T17:03:24;12.70;99.90
28725;DHT22;43472;48.980;9.646;2023-11-19T17:08:26;12.70;99.90
28725;DHT22;43472;48.980;9.646;2023-11-19T17:13:28;12.80;99.90
28725;DHT22;43472;48.980;9.646;2023-11-19T17:18:30;12.80;99.90
28725;DHT22;43472;48.980;9.646;2023-11-19T17:23:31;13.00;99.90
28725;DHT22;43472;48.980;9.646;2023-11-19T17:28:33;13.00;99.90
28725;DHT22;43472;48.980;9.646;2023-11-19T17:33:38;13.10;99.90
28725;DHT22;43472;48.980;9.646;2023-11-19T17:38:40;13.10;99.90
28725;DHT22;43472;48.980;9.646;2023-11-19T17:43:42;13.00;99.90
28725;DHT22;43472;48.980;9.646;2023-11-19T17:48:44;13.00;99.90
28725;DHT22;43472;48.980;9.646;2023-11-19T17:53:46;13.00;99.90
28725;DHT22;43472;48.980;9.646;2023-11-19T17:58:47;13.00;99.90
28725;DHT22;43472;48.980;9.646;2023-11-19T18:03:49;13.80;99.90
28725;DHT22;43472;48.980;9.646;2023-11-19T18:08:52;12.90;99.90
28725;DHT22;43472;48.980;9.646;2023-11-19T18:13:53;13.00;99.90
28725;DHT22;43472;48.980;9.646;2023-11-19T18:18:56;12.80;99.90
28725;DHT22;43472;48.980;9.646;2023-11-19T18:23:58;12.90;99.90
28725;DHT22;43472;48.980;9.646;2023-11-19T18:29:00;14.00;99.90
28725;DHT22;43472;48.980;9.646;2023-11-19T18:34:02;12.60;99.90
28725;DHT22;43472;48.980;9.646;2023-11-19T18:39:05;12.30;99.90
28725;DHT22;43472;48.980;9.646;2023-11-19T18:44:07;12.20;99.90
28725;DHT22;43472;48.980;9.646;2023-11-19T18:59:16;12.10;99.90
28725;DHT22;43472;48.980;9.646;2023-11-19T19:04:18;12.90;99.90
28725;DHT22;43472;48.980;9.646;2023-11-19T19:09:20;12.00;99.90
28725;DHT22;43472;48.980;9.646;2023-11-19T19:14:23;12.10;99.90
28725;DHT22;43472;48.980;9.646;2023-11-19T19:19:25;12.10;99.90
28725;DHT22;43472;48.980;9.646;2023-11-19T19:24:27;12.00;99.90
28725;DHT22;43472;48.980;9.646;2023-11-19T19:29:29;12.30;99.90
28725;DHT22;43472;48.980;9.646;2023-11-19T19:34:31;12.00;99.90
28725;DHT22;43472;48.980;9.646;2023-11-19T19:39:33;12.10;99.90
28725;DHT22;43472;48.980;9.646;2023-11-19T19:44:35;12.00;99.90
28725;DHT22;43472;48.980;9.646;2023-11-19T19:49:37;12.00;99.90
28725;DHT22;43472;48.980;9.646;2023-11-19T19:59:41;12.10;99.90
28725;DHT22;43472;48.980;9.646;2023-11-19T20:04:44;12.60;99.90
28725;DHT22;43472;48.980;9.646;2023-11-19T20:09:50;14.30;99.90
28725;DHT22;43472;48.980;9.646;2023-11-19T20:14:51;12.00;99.90
28725;DHT22;43472;48.980;9.646;2023-11-19T20:19:53;12.10;99.90
28725;DHT22;43472;48.980;9.646;2023-11-19T20:24:55;13.20;99.90
28725;DHT22;43472;48.980;9.646;2023-11-19T20:29:57;11.90;99.90
28725;DHT22;43472;48.980;9.646;2023-11-19T20:34:59;10.30;99.90
28725;DHT22;43472;48.980;9.646;2023-11-19T20:40:01;12.30;99.90
28725;DHT22;43472;48.980;9.646;2023-11-19T20:45:08;11.80;99.90
28725;DHT22;43472;48.980;9.646;2023-11-19T20:50:13;11.80;99.90
28725;DHT22;43472;48.980;9.646;2023-11-19T20:55:15;12.10;99.90
28725;DHT22;43472;48.980;9.646;2023-11-19T21:00:17;11.60;99.90
28725;DHT22;43472;48.980;9.646;2023-11-19T21:05:20;11.60;99.90
28725;DHT22;43472;48.980;9.646;2023-11-19T21:10:22;11.50;99.90
28725;DHT22;43472;48.980;9.646;2023-11-19T21:15:24;11.40;99.90
28725;DHT22;43472;48.980;9.646;2023-11-19T21:20:26;11.80;99.90
28725;DHT22;43472;48.980;9.646;2023-11-19T21:25:28;12.10;99.90
28725;DHT22;43472;48.980;9.646;2023-11-19T21:35:34;10.90;99.90
28725;DHT22;43472;48.980;9.646;2023-11-19T21:45:37;11.10;99.90
28725;DHT22;43472;48.980;9.646;2023-11-19T21:50:41;11.10;99.90
28725;DHT22;43472;48.980;9.646;2023-11-19T21:55:43;11.10;99.90
28725;DHT22;43472;48.980;9.646;2023-11-19T22:00:45;11.00;99.90
28725;DHT22;43472;48.980;9.646;2023-11-19T22:05:47;11.00;99.90
28725;DHT22;43472;48.980;9.646;2023-11-19T22:10:49;10.90;99.90
28725;DHT22;43472;48.980;9.646;2023-11-19T22:15:51;11.00;99.90
28725;DHT22;43472;48.980;9.646;2023-11-19T22:20:52;10.90;99.90
28725;DHT22;43472;48.980;9.646;2023-11-19T22:25:55;11.00;99.90
28725;DHT22;43472;48.980;9.646;2023-11-19T22:30:57;10.90;99.90
28725;DHT22;43472;48.980;9.646;2023-11-19T22:35:59;11.80;99.90
28725;DHT22;43472;48.980;9.646;2023-11-19T22:41:02;10.90;99.90
28725;DHT22;43472;48.980;9.646;2023-11-19T22:46:04;10.80;99.90
28725;DHT22;43472;48.980;9.646;2023-11-19T22:51:09;10.80;99.90
28725;DHT22;43472;48.980;9.646;2023-11-19T22:56:10;10.80;99.90
28725;DHT22;43472;48.980;9.646;2023-11-19T23:01:20;10.90;99.90
28725;DHT22;43472;48.980;9.646;2023-11-19T23:06:22;11.90;99.90
28725;DHT22;43472;48.980;9.646;2023-11-19T23:11:24;10.80;99.90
28725;DHT22;43472;48.980;9.646;2023-11-19T23:21:28;10.10;99.90
28725;DHT22;43472;48.980;9.646;2023-11-19T23:26:30;11.80;99.90
28725;DHT22;43472;48.980;9.646;2023-11-19T23:31:32;11.60;99.90
28725;DHT22;43472;48.980;9.646;2023-11-19T23:36:34;10.70;99.90
28725;DHT22;43472;48.980;9.646;2023-11-19T23:41:35;10.70;99.90
28725;DHT22;43472;48.980;9.646;2023-11-19T23:46:37;10.60;99.90
28725;DHT22;43472;48.980;9.646;2023-11-19T23:56:42;10.70;99.90
